sensor_id;sensor_type;location;lat;lon;timestamp;temperature;humidity
8896;DHT22;4484;48.928;10.066;2022-08-19T00:01:45;18.90;99.90
8896;DHT22;4484;48.928;10.066;2022-08-19T00:04:25;18.90;99.90
8896;DHT22;4484;48.928;10.066;2022-08-19T00:06:53;18.80;99.90
8896;DHT22;4484;48.928;10.066;2022-08-19T00:09:22;18.80;99.90
8896;DHT22;4484;48.928;10.066;2022-08-19T00:11:49;18.80;99.90
8896;DHT22;4484;48.928;10.066;2022-08-19T00:14:17;18.80;99.90
8896;DHT22;4484;48.928;10.066;2022-08-19T00:16:46;18.80;99.90
8896;DHT22;4484;48.928;10.066;2022-08-19T00:19:15;18.80;99.90
8896;DHT22;4484;48.928;10.066;2022-08-19T00:21:42;18.80;99.90
8896;DHT22;4484;48.928;10.066;2022-08-19T00:24:12;18.70;99.90
8896;DHT22;4484;48.928;10.066;2022-08-19T00:26:40;18.70;99.90
8896;DHT22;4484;48.928;10.066;2022-08-19T00:29:09;18.70;99.90
8896;DHT22;4484;48.928;10.066;2022-08-19T00:31:37;18.70;99.90
8896;DHT22;4484;48.928;10.066;2022-08-19T00:34:04;18.70;99.90
8896;DHT22;4484;48.928;10.066;2022-08-19T00:36:31;18.70;99.90
8896;DHT22;4484;48.928;10.066;2022-08-19T00:38:59;18.70;99.90
8896;DHT22;4484;48.928;10.066;2022-08-19T00:41:27;18.60;99.90
8896;DHT22;4484;48.928;10.066;2022-08-19T00:44:17;18.60;99.90
8896;DHT22;4484;48.928;10.066;2022-08-19T00:46:48;18.60;99.90
8896;DHT22;4484;48.928;10.066;2022-08-19T00:49:49;18.50;99.90
8896;DHT22;4484;48.928;10.066;2022-08-19T00:52:25;18.60;99.90
8896;DHT22;4484;48.928;10.066;2022-08-19T00:54:56;18.50;99.90
8896;DHT22;4484;48.928;10.066;2022-08-19T00:57:32;18.50;99.90
8896;DHT22;4484;48.928;10.066;2022-08-19T01:00:06;18.40;99.90
8896;DHT22;4484;48.928;10.066;2022-08-19T01:02:36;18.40;99.90
8896;DHT22;4484;48.928;10.066;2022-08-19T01:05:08;18.40;99.90
8896;DHT22;4484;48.928;10.066;2022-08-19T01:07:37;18.40;99.90
8896;DHT22;4484;48.928;10.066;2022-08-19T01:10:08;18.40;99.90
8896;DHT22;4484;48.928;10.066;2022-08-19T01:12:36;18.30;99.90
8896;DHT22;4484;48.928;10.066;2022-08-19T01:15:08;18.30;99.90
8896;DHT22;4484;48.928;10.066;2022-08-19T01:17:38;18.30;99.90
8896;DHT22;4484;48.928;10.066;2022-08-19T01:20:08;18.30;99.90
8896;DHT22;4484;48.928;10.066;2022-08-19T01:22:44;18.30;99.90
8896;DHT22;4484;48.928;10.066;2022-08-19T01:25:14;18.30;99.90
8896;DHT22;4484;48.928;10.066;2022-08-19T01:27:46;18.30;99.90
8896;DHT22;4484;48.928;10.066;2022-08-19T01:30:20;18.30;99.90
8896;DHT22;4484;48.928;10.066;2022-08-19T01:32:49;18.30;99.90
8896;DHT22;4484;48.928;10.066;2022-08-19T01:35:16;18.30;99.90
8896;DHT22;4484;48.928;10.066;2022-08-19T01:37:46;18.30;99.90
8896;DHT22;4484;48.928;10.066;2022-08-19T01:40:15;18.30;99.90
8896;DHT22;4484;48.928;10.066;2022-08-19T01:42:42;18.20;99.90
8896;DHT22;4484;48.928;10.066;2022-08-19T01:45:09;18.20;99.90
8896;DHT22;4484;48.928;10.066;2022-08-19T01:47:37;18.20;99.90
8896;DHT22;4484;48.928;10.066;2022-08-19T01:50:07;18.20;99.90
8896;DHT22;4484;48.928;10.066;2022-08-19T01:52:36;18.20;99.90
8896;DHT22;4484;48.928;10.066;2022-08-19T01:55:06;18.10;99.90
8896;DHT22;4484;48.928;10.066;2022-08-19T01:57:35;18.10;99.90
8896;DHT22;4484;48.928;10.066;2022-08-19T02:00:04;18.10;99.90
8896;DHT22;4484;48.928;10.066;2022-08-19T02:02:37;18.10;99.90
8896;DHT22;4484;48.928;10.066;2022-08-19T02:05:04;18.00;99.90
8896;DHT22;4484;48.928;10.066;2022-08-19T02:07:37;18.00;99.90
8896;DHT22;4484;48.928;10.066;2022-08-19T02:10:10;18.00;99.90
8896;DHT22;4484;48.928;10.066;2022-08-19T02:12:39;17.90;99.90
8896;DHT22;4484;48.928;10.066;2022-08-19T02:15:07;17.90;99.90
8896;DHT22;4484;48.928;10.066;2022-08-19T02:17:34;17.90;99.90
8896;DHT22;4484;48.928;10.066;2022-08-19T02:20:01;17.90;99.90
8896;DHT22;4484;48.928;10.066;2022-08-19T02:22:28;17.90;99.90
8896;DHT22;4484;48.928;10.066;2022-08-19T02:24:55;17.90;99.90
8896;DHT22;4484;48.928;10.066;2022-08-19T02:27:22;17.90;99.90
8896;DHT22;4484;48.928;10.066;2022-08-19T02:29:50;17.90;99.90
8896;DHT22;4484;48.928;10.066;2022-08-19T02:32:18;17.90;99.90
8896;DHT22;4484;48.928;10.066;2022-08-19T02:34:47;17.90;99.90
8896;DHT22;4484;48.928;10.066;2022-08-19T02:37:15;17.80;99.90
8896;DHT22;4484;48.928;10.066;2022-08-19T02:40:01;17.80;99.90
8896;DHT22;4484;48.928;10.066;2022-08-19T02:42:29;17.80;99.90
8896;DHT22;4484;48.928;10.066;2022-08-19T02:44:56;17.80;99.90
8896;DHT22;4484;48.928;10.066;2022-08-19T02:47:23;17.80;99.90
8896;DHT22;4484;48.928;10.066;2022-08-19T02:49:50;17.80;99.90
8896;DHT22;4484;48.928;10.066;2022-08-19T02:52:17;17.80;99.90
8896;DHT22;4484;48.928;10.066;2022-08-19T02:54:44;17.80;99.90
8896;DHT22;4484;48.928;10.066;2022-08-19T02:57:11;17.80;99.90
8896;DHT22;4484;48.928;10.066;2022-08-19T02:59:38;17.80;99.90
8896;DHT22;4484;48.928;10.066;2022-08-19T03:02:04;17.80;99.90
8896;DHT22;4484;48.928;10.066;2022-08-19T03:04:31;17.80;99.90
8896;DHT22;4484;48.928;10.066;2022-08-19T03:06:58;17.80;99.90
8896;DHT22;4484;48.928;10.066;2022-08-19T03:09:37;17.80;99.90
8896;DHT22;4484;48.928;10.066;2022-08-19T03:12:05;17.80;99.90
8896;DHT22;4484;48.928;10.066;2022-08-19T03:14:33;17.90;99.90
8896;DHT22;4484;48.928;10.066;2022-08-19T03:17:01;17.90;99.90
8896;DHT22;4484;48.928;10.066;2022-08-19T03:19:28;17.90;99.90
8896;DHT22;4484;48.928;10.066;2022-08-19T03:21:55;17.80;99.90
8896;DHT22;4484;48.928;10.066;2022-08-19T03:24:22;17.80;99.90
8896;DHT22;4484;48.928;10.066;2022-08-19T03:26:51;17.80;99.90
8896;DHT22;4484;48.928;10.066;2022-08-19T03:29:19;17.80;99.90
8896;DHT22;4484;48.928;10.066;2022-08-19T03:32:10;17.80;99.90
8896;DHT22;4484;48.928;10.066;2022-08-19T03:34:57;17.80;99.90
8896;DHT22;4484;48.928;10.066;2022-08-19T03:37:23;17.80;99.90
8896;DHT22;4484;48.928;10.066;2022-08-19T03:39:51;17.80;99.90
8896;DHT22;4484;48.928;10.066;2022-08-19T03:42:18;17.80;99.90
8896;DHT22;4484;48.928;10.066;2022-08-19T03:45:06;17.80;99.90
8896;DHT22;4484;48.928;10.066;2022-08-19T03:47:34;17.80;99.90
8896;DHT22;4484;48.928;10.066;2022-08-19T03:50:00;17.80;99.90
8896;DHT22;4484;48.928;10.066;2022-08-19T03:52:28;17.80;99.90
8896;DHT22;4484;48.928;10.066;2022-08-19T03:54:55;17.80;99.90
8896;DHT22;4484;48.928;10.066;2022-08-19T03:57:22;17.80;99.90
8896;DHT22;4484;48.928;10.066;2022-08-19T03:59:57;17.80;99.90
8896;DHT22;4484;48.928;10.066;2022-08-19T04:02:40;17.80;99.90
8896;DHT22;4484;48.928;10.066;2022-08-19T04:05:23;17.70;99.90
8896;DHT22;4484;48.928;10.066;2022-08-19T04:07:53;17.70;99.90
8896;DHT22;4484;48.928;10.066;2022-08-19T04:10:21;17.70;99.90
8896;DHT22;4484;48.928;10.066;2022-08-19T04:12:48;17.70;99.90
8896;DHT22;4484;48.928;10.066;2022-08-19T04:15:16;17.70;99.90
8896;DHT22;4484;48.928;10.066;2022-08-19T04:17:43;17.70;99.90
8896;DHT22;4484;48.928;10.066;2022-08-19T04:20:10;17.60;99.90
8896;DHT22;4484;48.928;10.066;2022-08-19T04:22:37;17.60;99.90
8896;DHT22;4484;48.928;10.066;2022-08-19T04:25:04;17.60;99.90
8896;DHT22;4484;48.928;10.066;2022-08-19T04:27:31;17.60;99.90
8896;DHT22;4484;48.928;10.066;2022-08-19T04:30:00;17.60;99.90
8896;DHT22;4484;48.928;10.066;2022-08-19T04:32:26;17.60;99.90
8896;DHT22;4484;48.928;10.066;2022-08-19T04:34:53;17.60;99.90
8896;DHT22;4484;48.928;10.066;2022-08-19T04:37:43;17.50;99.90
8896;DHT22;4484;48.928;10.066;2022-08-19T04:40:10;17.60;99.90
8896;DHT22;4484;48.928;10.066;2022-08-19T04:42:56;17.60;99.90
8896;DHT22;4484;48.928;10.066;2022-08-19T04:45:24;17.60;99.90
8896;DHT22;4484;48.928;10.066;2022-08-19T04:47:55;17.60;99.90
8896;DHT22;4484;48.928;10.066;2022-08-19T04:50:44;17.70;99.90
8896;DHT22;4484;48.928;10.066;2022-08-19T04:53:11;17.70;99.90
8896;DHT22;4484;48.928;10.066;2022-08-19T04:55:40;17.70;99.90
8896;DHT22;4484;48.928;10.066;2022-08-19T04:58:07;17.70;99.90
8896;DHT22;4484;48.928;10.066;2022-08-19T05:00:38;17.80;99.90
8896;DHT22;4484;48.928;10.066;2022-08-19T05:03:06;17.80;99.90
8896;DHT22;4484;48.928;10.066;2022-08-19T05:05:33;17.80;99.90
8896;DHT22;4484;48.928;10.066;2022-08-19T05:08:15;17.80;99.90
8896;DHT22;4484;48.928;10.066;2022-08-19T05:10:57;17.90;99.90
8896;DHT22;4484;48.928;10.066;2022-08-19T05:13:24;17.90;99.90
8896;DHT22;4484;48.928;10.066;2022-08-19T05:15:58;18.00;99.90
8896;DHT22;4484;48.928;10.066;2022-08-19T05:18:25;18.00;99.90
8896;DHT22;4484;48.928;10.066;2022-08-19T05:21:13;18.00;99.90
8896;DHT22;4484;48.928;10.066;2022-08-19T05:23:59;18.00;99.90
8896;DHT22;4484;48.928;10.066;2022-08-19T05:26:26;18.10;99.90
8896;DHT22;4484;48.928;10.066;2022-08-19T05:28:53;18.10;99.90
8896;DHT22;4484;48.928;10.066;2022-08-19T05:31:21;18.10;99.90
8896;DHT22;4484;48.928;10.066;2022-08-19T05:33:48;18.10;99.90
8896;DHT22;4484;48.928;10.066;2022-08-19T05:36:16;18.20;99.90
8896;DHT22;4484;48.928;10.066;2022-08-19T05:38:45;18.20;99.90
8896;DHT22;4484;48.928;10.066;2022-08-19T05:41:14;18.20;99.90
8896;DHT22;4484;48.928;10.066;2022-08-19T05:43:41;18.20;99.90
8896;DHT22;4484;48.928;10.066;2022-08-19T05:46:17;18.20;99.90
8896;DHT22;4484;48.928;10.066;2022-08-19T05:48:53;18.20;99.90
8896;DHT22;4484;48.928;10.066;2022-08-19T05:51:23;18.30;99.90
8896;DHT22;4484;48.928;10.066;2022-08-19T05:53:55;18.30;99.90
8896;DHT22;4484;48.928;10.066;2022-08-19T05:56:21;18.30;99.90
8896;DHT22;4484;48.928;10.066;2022-08-19T05:58:48;18.30;99.90
8896;DHT22;4484;48.928;10.066;2022-08-19T06:01:17;18.40;99.90
8896;DHT22;4484;48.928;10.066;2022-08-19T06:03:45;18.40;99.90
8896;DHT22;4484;48.928;10.066;2022-08-19T06:06:15;18.40;99.90
8896;DHT22;4484;48.928;10.066;2022-08-19T06:08:42;18.40;99.90
8896;DHT22;4484;48.928;10.066;2022-08-19T06:13:44;18.50;99.90
8896;DHT22;4484;48.928;10.066;2022-08-19T06:16:15;18.40;99.90
8896;DHT22;4484;48.928;10.066;2022-08-19T06:18:48;18.40;99.90
8896;DHT22;4484;48.928;10.066;2022-08-19T06:21:23;18.40;99.90
8896;DHT22;4484;48.928;10.066;2022-08-19T06:23:51;18.40;99.90
8896;DHT22;4484;48.928;10.066;2022-08-19T06:26:19;18.40;99.90
8896;DHT22;4484;48.928;10.066;2022-08-19T06:28:46;18.40;99.90
8896;DHT22;4484;48.928;10.066;2022-08-19T06:31:16;18.50;99.90
8896;DHT22;4484;48.928;10.066;2022-08-19T06:33:44;18.50;99.90
8896;DHT22;4484;48.928;10.066;2022-08-19T06:36:29;18.50;99.90
8896;DHT22;4484;48.928;10.066;2022-08-19T06:38:58;18.50;99.90
8896;DHT22;4484;48.928;10.066;2022-08-19T06:41:26;18.50;99.90
8896;DHT22;4484;48.928;10.066;2022-08-19T06:43:55;18.60;99.90
8896;DHT22;4484;48.928;10.066;2022-08-19T06:46:22;18.60;99.90
8896;DHT22;4484;48.928;10.066;2022-08-19T06:48:50;18.60;99.90
8896;DHT22;4484;48.928;10.066;2022-08-19T06:51:20;18.60;99.90
8896;DHT22;4484;48.928;10.066;2022-08-19T06:53:50;18.60;99.90
8896;DHT22;4484;48.928;10.066;2022-08-19T06:56:27;18.60;99.90
8896;DHT22;4484;48.928;10.066;2022-08-19T06:59:15;18.50;99.90
8896;DHT22;4484;48.928;10.066;2022-08-19T07:01:51;18.50;99.90
8896;DHT22;4484;48.928;10.066;2022-08-19T07:04:21;18.50;99.90
8896;DHT22;4484;48.928;10.066;2022-08-19T07:06:49;18.40;99.90
8896;DHT22;4484;48.928;10.066;2022-08-19T07:09:21;18.40;99.90
8896;DHT22;4484;48.928;10.066;2022-08-19T07:11:50;18.40;99.90
8896;DHT22;4484;48.928;10.066;2022-08-19T07:14:20;18.40;99.90
8896;DHT22;4484;48.928;10.066;2022-08-19T07:16:49;18.40;99.90
8896;DHT22;4484;48.928;10.066;2022-08-19T07:19:17;18.40;99.90
8896;DHT22;4484;48.928;10.066;2022-08-19T07:21:46;18.40;99.90
8896;DHT22;4484;48.928;10.066;2022-08-19T07:24:14;18.40;99.90
8896;DHT22;4484;48.928;10.066;2022-08-19T07:26:43;18.50;99.90
8896;DHT22;4484;48.928;10.066;2022-08-19T07:29:11;18.50;99.90
8896;DHT22;4484;48.928;10.066;2022-08-19T07:31:39;18.60;99.90
8896;DHT22;4484;48.928;10.066;2022-08-19T07:34:10;18.70;99.90
8896;DHT22;4484;48.928;10.066;2022-08-19T07:36:41;18.70;99.90
8896;DHT22;4484;48.928;10.066;2022-08-19T07:39:12;18.80;99.90
8896;DHT22;4484;48.928;10.066;2022-08-19T07:41:39;18.80;99.90
8896;DHT22;4484;48.928;10.066;2022-08-19T07:44:08;18.90;99.90
8896;DHT22;4484;48.928;10.066;2022-08-19T07:46:36;18.90;99.90
8896;DHT22;4484;48.928;10.066;2022-08-19T07:49:05;18.90;99.90
8896;DHT22;4484;48.928;10.066;2022-08-19T07:51:34;18.90;99.90
8896;DHT22;4484;48.928;10.066;2022-08-19T07:54:03;18.90;99.90
8896;DHT22;4484;48.928;10.066;2022-08-19T07:56:31;18.90;99.90
8896;DHT22;4484;48.928;10.066;2022-08-19T07:58:59;19.00;99.90
8896;DHT22;4484;48.928;10.066;2022-08-19T08:01:27;19.00;99.90
8896;DHT22;4484;48.928;10.066;2022-08-19T08:03:56;19.10;99.90
8896;DHT22;4484;48.928;10.066;2022-08-19T08:06:42;19.10;99.90
8896;DHT22;4484;48.928;10.066;2022-08-19T08:09:35;19.20;99.90
8896;DHT22;4484;48.928;10.066;2022-08-19T08:12:11;19.30;99.90
8896;DHT22;4484;48.928;10.066;2022-08-19T08:15:00;19.40;99.90
8896;DHT22;4484;48.928;10.066;2022-08-19T08:17:34;19.40;99.90
8896;DHT22;4484;48.928;10.066;2022-08-19T08:20:16;19.60;99.90
8896;DHT22;4484;48.928;10.066;2022-08-19T08:22:45;19.70;99.90
8896;DHT22;4484;48.928;10.066;2022-08-19T08:25:31;19.80;99.90
8896;DHT22;4484;48.928;10.066;2022-08-19T08:28:00;19.90;99.90
8896;DHT22;4484;48.928;10.066;2022-08-19T08:30:29;19.90;99.90
8896;DHT22;4484;48.928;10.066;2022-08-19T08:32:58;19.90;99.90
8896;DHT22;4484;48.928;10.066;2022-08-19T08:35:29;20.00;99.90
8896;DHT22;4484;48.928;10.066;2022-08-19T08:37:56;19.90;99.90
8896;DHT22;4484;48.928;10.066;2022-08-19T08:43:03;20.00;99.90
8896;DHT22;4484;48.928;10.066;2022-08-19T08:46:03;20.10;99.90
8896;DHT22;4484;48.928;10.066;2022-08-19T08:51:09;20.20;99.90
8896;DHT22;4484;48.928;10.066;2022-08-19T08:53:38;20.20;99.90
8896;DHT22;4484;48.928;10.066;2022-08-19T08:56:09;20.30;99.90
8896;DHT22;4484;48.928;10.066;2022-08-19T08:58:54;20.40;99.90
8896;DHT22;4484;48.928;10.066;2022-08-19T09:01:23;20.60;99.90
8896;DHT22;4484;48.928;10.066;2022-08-19T09:03:56;20.70;99.90
8896;DHT22;4484;48.928;10.066;2022-08-19T09:09:15;20.90;99.90
8896;DHT22;4484;48.928;10.066;2022-08-19T09:11:47;21.00;99.90
8896;DHT22;4484;48.928;10.066;2022-08-19T09:17:17;21.10;99.90
8896;DHT22;4484;48.928;10.066;2022-08-19T09:20:21;21.20;99.90
8896;DHT22;4484;48.928;10.066;2022-08-19T09:22:48;21.10;99.90
8896;DHT22;4484;48.928;10.066;2022-08-19T09:25:19;21.20;99.90
8896;DHT22;4484;48.928;10.066;2022-08-19T09:27:53;21.10;99.90
8896;DHT22;4484;48.928;10.066;2022-08-19T09:30:31;21.10;99.90
8896;DHT22;4484;48.928;10.066;2022-08-19T09:32:58;21.00;99.90
8896;DHT22;4484;48.928;10.066;2022-08-19T09:35:28;20.90;99.90
8896;DHT22;4484;48.928;10.066;2022-08-19T09:37:58;20.80;99.90
8896;DHT22;4484;48.928;10.066;2022-08-19T09:40:28;20.70;99.90
8896;DHT22;4484;48.928;10.066;2022-08-19T09:42:57;20.50;99.90
8896;DHT22;4484;48.928;10.066;2022-08-19T09:45:26;20.40;99.90
8896;DHT22;4484;48.928;10.066;2022-08-19T09:47:53;20.40;99.90
8896;DHT22;4484;48.928;10.066;2022-08-19T09:50:22;20.30;99.90
8896;DHT22;4484;48.928;10.066;2022-08-19T09:52:51;20.30;99.90
8896;DHT22;4484;48.928;10.066;2022-08-19T09:55:24;20.40;99.90
8896;DHT22;4484;48.928;10.066;2022-08-19T09:58:02;20.30;99.90
8896;DHT22;4484;48.928;10.066;2022-08-19T10:00:29;20.30;99.90
8896;DHT22;4484;48.928;10.066;2022-08-19T10:02:57;20.30;99.90
8896;DHT22;4484;48.928;10.066;2022-08-19T10:05:24;20.30;99.90
8896;DHT22;4484;48.928;10.066;2022-08-19T10:08:10;20.40;99.90
8896;DHT22;4484;48.928;10.066;2022-08-19T10:10:41;20.40;99.90
8896;DHT22;4484;48.928;10.066;2022-08-19T10:13:16;20.50;99.90
8896;DHT22;4484;48.928;10.066;2022-08-19T10:15:44;20.60;99.90
8896;DHT22;4484;48.928;10.066;2022-08-19T10:18:17;20.70;99.90
8896;DHT22;4484;48.928;10.066;2022-08-19T10:20:49;20.80;99.90
8896;DHT22;4484;48.928;10.066;2022-08-19T10:23:20;20.80;99.90
8896;DHT22;4484;48.928;10.066;2022-08-19T10:25:47;20.80;99.90
8896;DHT22;4484;48.928;10.066;2022-08-19T10:28:14;20.70;99.90
8896;DHT22;4484;48.928;10.066;2022-08-19T10:30:47;20.60;99.90
8896;DHT22;4484;48.928;10.066;2022-08-19T10:33:14;20.50;99.90
8896;DHT22;4484;48.928;10.066;2022-08-19T10:36:09;20.50;99.90
8896;DHT22;4484;48.928;10.066;2022-08-19T10:38:37;20.40;99.90
8896;DHT22;4484;48.928;10.066;2022-08-19T10:41:15;20.30;99.90
8896;DHT22;4484;48.928;10.066;2022-08-19T10:43:43;20.20;99.90
8896;DHT22;4484;48.928;10.066;2022-08-19T10:46:14;20.20;99.90
8896;DHT22;4484;48.928;10.066;2022-08-19T10:48:44;20.10;99.90
8896;DHT22;4484;48.928;10.066;2022-08-19T10:51:11;20.00;99.90
8896;DHT22;4484;48.928;10.066;2022-08-19T10:53:58;19.90;99.90
8896;DHT22;4484;48.928;10.066;2022-08-19T10:56:26;19.80;99.90
8896;DHT22;4484;48.928;10.066;2022-08-19T10:59:12;19.70;99.90
8896;DHT22;4484;48.928;10.066;2022-08-19T11:01:42;19.60;99.90
8896;DHT22;4484;48.928;10.066;2022-08-19T11:04:10;19.60;99.90
8896;DHT22;4484;48.928;10.066;2022-08-19T11:06:37;19.50;99.90
8896;DHT22;4484;48.928;10.066;2022-08-19T11:09:05;19.40;99.90
8896;DHT22;4484;48.928;10.066;2022-08-19T11:11:32;19.30;99.90
8896;DHT22;4484;48.928;10.066;2022-08-19T11:14:11;19.20;99.90
8896;DHT22;4484;48.928;10.066;2022-08-19T11:16:38;19.20;99.90
8896;DHT22;4484;48.928;10.066;2022-08-19T11:19:08;19.10;99.90
8896;DHT22;4484;48.928;10.066;2022-08-19T11:21:38;19.10;99.90
8896;DHT22;4484;48.928;10.066;2022-08-19T11:24:12;19.10;99.90
8896;DHT22;4484;48.928;10.066;2022-08-19T11:26:42;19.00;99.90
8896;DHT22;4484;48.928;10.066;2022-08-19T11:29:12;18.90;99.90
8896;DHT22;4484;48.928;10.066;2022-08-19T11:31:45;18.90;99.90
8896;DHT22;4484;48.928;10.066;2022-08-19T11:34:16;18.90;99.90
8896;DHT22;4484;48.928;10.066;2022-08-19T11:36:45;18.80;99.90
8896;DHT22;4484;48.928;10.066;2022-08-19T11:39:15;18.70;99.90
8896;DHT22;4484;48.928;10.066;2022-08-19T11:41:43;18.70;99.90
8896;DHT22;4484;48.928;10.066;2022-08-19T11:44:10;18.70;99.90
8896;DHT22;4484;48.928;10.066;2022-08-19T11:46:37;18.60;99.90
8896;DHT22;4484;48.928;10.066;2022-08-19T11:49:05;18.60;99.90
8896;DHT22;4484;48.928;10.066;2022-08-19T11:51:40;18.60;99.90
8896;DHT22;4484;48.928;10.066;2022-08-19T11:54:11;18.50;99.90
8896;DHT22;4484;48.928;10.066;2022-08-19T11:56:40;18.60;99.90
8896;DHT22;4484;48.928;10.066;2022-08-19T11:59:07;18.60;99.90
8896;DHT22;4484;48.928;10.066;2022-08-19T12:01:40;18.50;99.90
8896;DHT22;4484;48.928;10.066;2022-08-19T12:04:09;18.50;99.90
8896;DHT22;4484;48.928;10.066;2022-08-19T12:06:38;18.50;99.90
8896;DHT22;4484;48.928;10.066;2022-08-19T12:09:08;18.50;99.90
8896;DHT22;4484;48.928;10.066;2022-08-19T12:11:36;18.40;99.90
8896;DHT22;4484;48.928;10.066;2022-08-19T12:14:04;18.40;99.90
8896;DHT22;4484;48.928;10.066;2022-08-19T12:16:31;18.40;99.90
8896;DHT22;4484;48.928;10.066;2022-08-19T12:18:59;18.40;99.90
8896;DHT22;4484;48.928;10.066;2022-08-19T12:21:32;18.40;99.90
8896;DHT22;4484;48.928;10.066;2022-08-19T12:24:00;18.40;99.90
8896;DHT22;4484;48.928;10.066;2022-08-19T12:26:29;18.40;99.90
8896;DHT22;4484;48.928;10.066;2022-08-19T12:28:58;18.40;99.90
8896;DHT22;4484;48.928;10.066;2022-08-19T12:31:27;18.40;99.90
8896;DHT22;4484;48.928;10.066;2022-08-19T12:33:54;18.40;99.90
8896;DHT22;4484;48.928;10.066;2022-08-19T12:36:22;18.30;99.90
8896;DHT22;4484;48.928;10.066;2022-08-19T12:38:50;18.30;99.90
8896;DHT22;4484;48.928;10.066;2022-08-19T12:41:17;18.30;99.90
8896;DHT22;4484;48.928;10.066;2022-08-19T12:43:45;18.30;99.90
8896;DHT22;4484;48.928;10.066;2022-08-19T12:46:12;18.30;99.90
8896;DHT22;4484;48.928;10.066;2022-08-19T12:48:41;18.30;99.90
8896;DHT22;4484;48.928;10.066;2022-08-19T12:51:12;18.40;99.90
8896;DHT22;4484;48.928;10.066;2022-08-19T12:53:39;18.30;99.90
8896;DHT22;4484;48.928;10.066;2022-08-19T12:56:07;18.30;99.90
8896;DHT22;4484;48.928;10.066;2022-08-19T12:58:38;18.30;99.90
8896;DHT22;4484;48.928;10.066;2022-08-19T13:01:13;18.30;99.90
8896;DHT22;4484;48.928;10.066;2022-08-19T13:03:47;18.20;99.90
8896;DHT22;4484;48.928;10.066;2022-08-19T13:06:17;18.20;99.90
8896;DHT22;4484;48.928;10.066;2022-08-19T13:08:46;18.20;99.90
8896;DHT22;4484;48.928;10.066;2022-08-19T13:11:15;18.20;99.90
8896;DHT22;4484;48.928;10.066;2022-08-19T13:13:46;18.10;99.90
8896;DHT22;4484;48.928;10.066;2022-08-19T13:16:14;18.20;99.90
8896;DHT22;4484;48.928;10.066;2022-08-19T13:18:42;18.20;99.90
8896;DHT22;4484;48.928;10.066;2022-08-19T13:21:10;18.10;99.90
8896;DHT22;4484;48.928;10.066;2022-08-19T13:23:41;18.20;99.90
8896;DHT22;4484;48.928;10.066;2022-08-19T13:26:09;18.10;99.90
8896;DHT22;4484;48.928;10.066;2022-08-19T13:28:40;18.20;99.90
8896;DHT22;4484;48.928;10.066;2022-08-19T13:31:28;18.10;99.90
8896;DHT22;4484;48.928;10.066;2022-08-19T13:34:15;18.20;99.90
8896;DHT22;4484;48.928;10.066;2022-08-19T13:36:42;18.10;99.90
8896;DHT22;4484;48.928;10.066;2022-08-19T13:39:09;18.10;99.90
8896;DHT22;4484;48.928;10.066;2022-08-19T13:41:40;18.10;99.90
8896;DHT22;4484;48.928;10.066;2022-08-19T13:44:09;18.10;99.90
8896;DHT22;4484;48.928;10.066;2022-08-19T13:46:36;18.10;99.90
8896;DHT22;4484;48.928;10.066;2022-08-19T13:49:03;18.10;99.90
8896;DHT22;4484;48.928;10.066;2022-08-19T13:51:30;18.10;99.90
8896;DHT22;4484;48.928;10.066;2022-08-19T13:53:57;18.20;99.90
8896;DHT22;4484;48.928;10.066;2022-08-19T13:56:24;18.20;99.90
8896;DHT22;4484;48.928;10.066;2022-08-19T13:58:54;18.20;99.90
8896;DHT22;4484;48.928;10.066;2022-08-19T14:01:26;18.10;99.90
8896;DHT22;4484;48.928;10.066;2022-08-19T14:03:54;18.10;99.90
8896;DHT22;4484;48.928;10.066;2022-08-19T14:06:21;18.10;99.90
8896;DHT22;4484;48.928;10.066;2022-08-19T14:08:48;18.20;99.90
8896;DHT22;4484;48.928;10.066;2022-08-19T14:11:15;18.20;99.90
8896;DHT22;4484;48.928;10.066;2022-08-19T14:13:43;18.10;99.90
8896;DHT22;4484;48.928;10.066;2022-08-19T14:16:12;18.20;99.90
8896;DHT22;4484;48.928;10.066;2022-08-19T14:18:39;18.20;99.90
8896;DHT22;4484;48.928;10.066;2022-08-19T14:21:08;18.10;99.90
8896;DHT22;4484;48.928;10.066;2022-08-19T14:23:41;18.20;99.90
8896;DHT22;4484;48.928;10.066;2022-08-19T14:26:11;18.10;99.90
8896;DHT22;4484;48.928;10.066;2022-08-19T14:28:39;18.10;99.90
8896;DHT22;4484;48.928;10.066;2022-08-19T14:31:14;18.20;99.90
8896;DHT22;4484;48.928;10.066;2022-08-19T14:33:48;18.20;99.90
8896;DHT22;4484;48.928;10.066;2022-08-19T14:36:16;18.20;99.90
8896;DHT22;4484;48.928;10.066;2022-08-19T14:38:43;18.20;99.90
8896;DHT22;4484;48.928;10.066;2022-08-19T14:43:38;18.20;99.90
8896;DHT22;4484;48.928;10.066;2022-08-19T14:46:05;18.20;99.90
8896;DHT22;4484;48.928;10.066;2022-08-19T14:48:33;18.10;99.90
8896;DHT22;4484;48.928;10.066;2022-08-19T14:51:00;18.10;99.90
8896;DHT22;4484;48.928;10.066;2022-08-19T14:53:28;18.10;99.90
8896;DHT22;4484;48.928;10.066;2022-08-19T14:55:54;18.10;99.90
8896;DHT22;4484;48.928;10.066;2022-08-19T14:58:21;18.10;99.90
8896;DHT22;4484;48.928;10.066;2022-08-19T15:00:58;18.10;99.90
8896;DHT22;4484;48.928;10.066;2022-08-19T15:03:25;18.10;99.90
8896;DHT22;4484;48.928;10.066;2022-08-19T15:05:52;18.10;99.90
8896;DHT22;4484;48.928;10.066;2022-08-19T15:08:20;18.10;99.90
8896;DHT22;4484;48.928;10.066;2022-08-19T15:10:51;18.10;99.90
8896;DHT22;4484;48.928;10.066;2022-08-19T15:13:19;18.10;99.90
8896;DHT22;4484;48.928;10.066;2022-08-19T15:15:47;18.10;99.90
8896;DHT22;4484;48.928;10.066;2022-08-19T15:18:14;18.10;99.90
8896;DHT22;4484;48.928;10.066;2022-08-19T15:20:42;18.10;99.90
8896;DHT22;4484;48.928;10.066;2022-08-19T15:23:16;18.10;99.90
8896;DHT22;4484;48.928;10.066;2022-08-19T15:25:44;18.00;99.90
8896;DHT22;4484;48.928;10.066;2022-08-19T15:28:11;18.00;99.90
8896;DHT22;4484;48.928;10.066;2022-08-19T15:30:40;18.00;99.90
8896;DHT22;4484;48.928;10.066;2022-08-19T15:33:07;18.00;99.90
8896;DHT22;4484;48.928;10.066;2022-08-19T15:35:34;18.00;99.90
8896;DHT22;4484;48.928;10.066;2022-08-19T15:38:01;17.90;99.90
8896;DHT22;4484;48.928;10.066;2022-08-19T15:40:29;18.00;99.90
8896;DHT22;4484;48.928;10.066;2022-08-19T15:42:58;17.90;99.90
8896;DHT22;4484;48.928;10.066;2022-08-19T15:45:27;17.90;99.90
8896;DHT22;4484;48.928;10.066;2022-08-19T15:48:04;17.90;99.90
8896;DHT22;4484;48.928;10.066;2022-08-19T15:50:32;17.90;99.90
8896;DHT22;4484;48.928;10.066;2022-08-19T15:53:09;17.90;99.90
8896;DHT22;4484;48.928;10.066;2022-08-19T15:55:42;17.90;99.90
8896;DHT22;4484;48.928;10.066;2022-08-19T15:58:13;17.90;99.90
8896;DHT22;4484;48.928;10.066;2022-08-19T16:01:02;17.90;99.90
8896;DHT22;4484;48.928;10.066;2022-08-19T16:04:03;17.90;99.90
8896;DHT22;4484;48.928;10.066;2022-08-19T16:06:55;17.90;99.90
8896;DHT22;4484;48.928;10.066;2022-08-19T16:09:25;17.90;99.90
8896;DHT22;4484;48.928;10.066;2022-08-19T16:11:59;17.90;99.90
8896;DHT22;4484;48.928;10.066;2022-08-19T16:14:31;17.90;99.90
8896;DHT22;4484;48.928;10.066;2022-08-19T16:16:59;17.90;99.90
8896;DHT22;4484;48.928;10.066;2022-08-19T16:19:27;17.80;99.90
8896;DHT22;4484;48.928;10.066;2022-08-19T16:21:55;17.90;99.90
8896;DHT22;4484;48.928;10.066;2022-08-19T16:24:25;17.80;99.90